createdAt,value
2018-08-17T00:02:28.261Z,12.43
2018-08-17T00:04:56.763Z,6.37
2018-08-17T00:07:25.268Z,6.27
2018-08-17T00:09:53.814Z,5.87
2018-08-17T00:12:22.381Z,6.23
2018-08-17T00:14:50.889Z,8.27
2018-08-17T00:17:19.421Z,6.17
2018-08-17T00:19:47.917Z,8.60
2018-08-17T00:22:16.427Z,7.17
2018-08-17T00:24:44.963Z,8.43
2018-08-17T00:27:13.489Z,10.27
2018-08-17T00:29:42.037Z,7.43
2018-08-17T00:32:10.549Z,6.87
2018-08-17T00:34:39.085Z,5.70
2018-08-17T00:37:07.649Z,7.63
2018-08-17T00:39:36.175Z,6.47
2018-08-17T00:42:04.678Z,7.23
2018-08-17T00:44:33.173Z,9.40
2018-08-17T00:47:01.714Z,6.83
2018-08-17T00:49:30.241Z,6.23
2018-08-17T00:51:58.878Z,7.53
2018-08-17T00:54:27.407Z,10.20
2018-08-17T00:57:58.884Z,9.20
2018-08-17T01:00:27.480Z,7.33
2018-08-17T01:02:56.025Z,6.23
2018-08-17T01:05:24.972Z,10.70
2018-08-17T01:07:53.510Z,7.23
2018-08-17T01:10:22.022Z,7.70
2018-08-17T01:12:50.600Z,13.00
2018-08-17T01:15:19.103Z,6.57
2018-08-17T01:17:47.709Z,9.87
2018-08-17T01:20:16.209Z,8.17
2018-08-17T01:22:45.374Z,7.17
2018-08-17T01:25:13.904Z,7.80
2018-08-17T01:27:42.401Z,6.33
2018-08-17T01:30:10.909Z,8.33
2018-08-17T01:32:39.430Z,7.03
2018-08-17T01:35:08.065Z,6.93
2018-08-17T01:37:36.853Z,9.03
2018-08-17T01:40:05.568Z,6.70
2018-08-17T01:42:34.079Z,9.87
2018-08-17T01:45:02.598Z,6.13
2018-08-17T01:47:31.122Z,7.93
2018-08-17T01:49:59.657Z,11.37
2018-08-17T01:52:28.164Z,6.87
2018-08-17T01:54:56.680Z,8.60
2018-08-17T01:57:25.190Z,7.93
2018-08-17T01:59:53.715Z,7.03
2018-08-17T02:02:22.249Z,7.60
2018-08-17T02:04:50.745Z,8.90
2018-08-17T02:07:19.235Z,7.00
2018-08-17T02:09:47.743Z,8.10
2018-08-17T02:12:16.247Z,9.70
2018-08-17T02:14:44.817Z,8.63
2018-08-17T02:17:13.337Z,8.10
2018-08-17T02:19:41.854Z,10.10
2018-08-17T02:22:10.373Z,6.70
2018-08-17T02:24:38.885Z,10.87
2018-08-17T02:27:07.737Z,10.53
2018-08-17T02:29:36.249Z,11.70
2018-08-17T02:32:04.763Z,7.37
2018-08-17T02:34:33.266Z,10.63
2018-08-17T02:37:01.805Z,7.43
2018-08-17T02:39:30.346Z,9.67
2018-08-17T02:41:59.091Z,9.67
2018-08-17T02:44:27.619Z,8.50
2018-08-17T02:46:56.158Z,9.10
2018-08-17T02:49:24.821Z,7.10
2018-08-17T02:51:53.437Z,5.77
2018-08-17T02:54:21.930Z,8.47
2018-08-17T02:56:50.487Z,11.80
2018-08-17T02:59:19.010Z,7.43
2018-08-17T03:01:47.518Z,8.73
2018-08-17T03:04:16.067Z,6.60
2018-08-17T03:06:44.618Z,10.27
2018-08-17T03:09:13.158Z,6.60
2018-08-17T03:11:42.283Z,10.53
2018-08-17T03:14:11.083Z,11.67
2018-08-17T03:16:39.662Z,9.23
2018-08-17T03:19:08.229Z,7.33
2018-08-17T03:21:36.760Z,10.43
2018-08-17T03:24:05.522Z,8.47
2018-08-17T03:26:34.050Z,10.37
2018-08-17T03:29:02.612Z,10.77
2018-08-17T03:31:31.137Z,6.20
2018-08-17T03:33:59.676Z,6.50
2018-08-17T03:36:28.200Z,10.23
2018-08-17T03:38:56.705Z,9.60
2018-08-17T03:41:25.246Z,12.97
2018-08-17T03:43:53.783Z,7.43
2018-08-17T03:46:22.359Z,6.97
2018-08-17T03:48:50.874Z,10.83
2018-08-17T03:51:19.383Z,8.27
2018-08-17T03:53:47.905Z,7.30
2018-08-17T03:56:16.421Z,10.23
2018-08-17T03:58:44.917Z,8.43
2018-08-17T04:01:13.433Z,9.47
2018-08-17T04:03:41.944Z,6.00
2018-08-17T04:06:10.475Z,7.67
2018-08-17T04:08:38.980Z,8.03
2018-08-17T04:11:07.493Z,6.27
2018-08-17T04:13:37.770Z,8.03
2018-08-17T04:16:06.273Z,9.20
2018-08-17T04:18:34.835Z,8.63
2018-08-17T04:21:03.338Z,7.87
2018-08-17T04:23:31.847Z,9.33
2018-08-17T04:26:00.368Z,6.77
2018-08-17T04:28:28.865Z,7.53
2018-08-17T04:30:57.404Z,6.73
2018-08-17T04:33:25.953Z,5.57
2018-08-17T04:35:54.473Z,5.60
2018-08-17T04:38:22.995Z,7.63
2018-08-17T04:40:51.579Z,8.17
2018-08-17T04:43:20.277Z,8.83
2018-08-17T04:45:48.789Z,8.33
2018-08-17T04:48:17.313Z,5.40
2018-08-17T04:50:45.840Z,6.80
2018-08-17T04:53:14.345Z,5.57
2018-08-17T04:55:42.880Z,8.10
2018-08-17T04:58:11.395Z,9.50
2018-08-17T05:00:39.910Z,9.00
2018-08-17T05:03:08.408Z,6.43
2018-08-17T05:05:36.925Z,6.10
2018-08-17T05:08:05.458Z,9.83
2018-08-17T05:10:33.957Z,9.73
2018-08-17T05:13:02.454Z,7.33
2018-08-17T05:15:30.955Z,11.27
2018-08-17T05:17:59.483Z,6.57
2018-08-17T05:20:28.045Z,8.30
2018-08-17T05:22:56.557Z,9.30
2018-08-17T05:25:25.072Z,11.87
2018-08-17T05:27:53.760Z,12.23
2018-08-17T05:30:22.285Z,17.67
2018-08-17T05:32:50.817Z,7.87
2018-08-17T05:35:19.859Z,10.87
2018-08-17T05:37:48.366Z,7.03
2018-08-17T05:40:16.863Z,6.27
2018-08-17T05:42:45.375Z,12.33
2018-08-17T05:45:13.944Z,8.20
2018-08-17T05:47:42.416Z,7.07
2018-08-17T05:50:10.924Z,10.27
2018-08-17T05:52:39.418Z,8.80
2018-08-17T05:55:07.953Z,9.00
2018-08-17T05:57:36.695Z,7.93
2018-08-17T06:00:07.089Z,7.50
2018-08-17T06:02:35.601Z,9.73
2018-08-17T06:05:05.370Z,11.20
2018-08-17T06:07:33.873Z,13.07
2018-08-17T06:10:02.514Z,8.60
2018-08-17T06:12:31.038Z,9.87
2018-08-17T06:14:59.575Z,9.00
2018-08-17T06:17:28.111Z,14.40
2018-08-17T06:19:56.641Z,15.30
2018-08-17T06:22:25.207Z,9.93
2018-08-17T06:24:53.733Z,18.77
2018-08-17T06:27:22.279Z,11.67
2018-08-17T06:29:50.793Z,12.77
2018-08-17T06:32:19.296Z,10.67
2018-08-17T06:34:47.854Z,11.43
2018-08-17T06:37:16.455Z,13.37
2018-08-17T06:39:46.914Z,11.63
2018-08-17T06:42:15.441Z,9.50
2018-08-17T06:44:43.946Z,14.10
2018-08-17T06:47:12.524Z,13.33
2018-08-17T06:49:41.048Z,12.83
2018-08-17T06:52:09.577Z,9.23
2018-08-17T06:54:38.107Z,13.50
2018-08-17T06:57:06.645Z,14.83
2018-08-17T06:59:35.210Z,15.80
2018-08-17T07:02:03.758Z,12.97
2018-08-17T07:04:32.285Z,13.77
2018-08-17T07:07:01.424Z,16.53
2018-08-17T07:09:30.030Z,16.20
2018-08-17T07:11:58.561Z,16.63
2018-08-17T07:14:27.085Z,16.97
2018-08-17T07:16:56.003Z,21.27
2018-08-17T07:19:24.521Z,16.93
2018-08-17T07:21:53.092Z,14.37
2018-08-17T07:24:21.947Z,18.37
2018-08-17T07:26:50.465Z,16.10
2018-08-17T07:29:18.990Z,17.43
2018-08-17T07:31:47.500Z,19.37
2018-08-17T07:34:16.021Z,16.10
2018-08-17T07:36:44.561Z,16.50
2018-08-17T07:39:13.061Z,13.83
2018-08-17T07:41:41.612Z,18.27
2018-08-17T07:44:11.137Z,17.40
2018-08-17T07:46:39.653Z,13.83
2018-08-17T07:49:08.262Z,20.97
2018-08-17T07:51:36.787Z,10.77
2018-08-17T07:54:05.295Z,15.37
2018-08-17T07:56:34.304Z,13.93
2018-08-17T07:59:06.505Z,14.73
2018-08-17T08:01:34.992Z,12.33
2018-08-17T08:04:03.496Z,11.13
2018-08-17T08:06:32.022Z,10.20
2018-08-17T08:09:01.854Z,11.30
2018-08-17T08:11:31.591Z,10.77
2018-08-17T08:14:00.134Z,13.30
2018-08-17T08:16:28.814Z,8.77
2018-08-17T08:19:02.221Z,14.43
2018-08-17T08:21:34.601Z,10.17
2018-08-17T08:24:04.222Z,13.43
2018-08-17T08:26:32.759Z,10.00
2018-08-17T08:29:01.258Z,11.57
2018-08-17T08:31:29.770Z,12.57
2018-08-17T08:33:58.281Z,9.60
2018-08-17T08:36:26.834Z,11.10
2018-08-17T08:38:55.374Z,12.90
2018-08-17T08:41:23.981Z,10.37
2018-08-17T08:43:55.805Z,12.57
2018-08-17T08:46:24.317Z,8.13
2018-08-17T08:48:54.787Z,10.37
2018-08-17T08:51:25.197Z,13.63
2018-08-17T08:53:53.792Z,8.97
2018-08-17T08:56:22.334Z,11.07
2018-08-17T08:58:51.110Z,8.50
2018-08-17T09:01:19.654Z,8.00
2018-08-17T09:03:48.167Z,7.00
2018-08-17T09:06:16.690Z,8.27
2018-08-17T09:08:45.506Z,7.83
2018-08-17T09:11:14.015Z,10.40
2018-08-17T09:13:42.618Z,8.70
2018-08-17T09:16:12.098Z,11.97
2018-08-17T09:18:40.601Z,8.97
2018-08-17T09:21:09.134Z,8.67
2018-08-17T09:23:37.641Z,7.23
2018-08-17T09:26:06.196Z,8.80
2018-08-17T09:28:34.752Z,9.97
2018-08-17T09:31:03.270Z,8.03
2018-08-17T09:33:31.803Z,8.53
2018-08-17T09:36:00.413Z,6.30
2018-08-17T09:38:28.929Z,8.00
2018-08-17T09:40:57.428Z,7.77
2018-08-17T09:43:25.964Z,6.23
2018-08-17T09:45:54.518Z,8.37
2018-08-17T09:48:23.029Z,7.30
2018-08-17T09:50:51.585Z,10.13
2018-08-17T09:53:20.091Z,7.97
2018-08-17T09:55:48.591Z,5.27
2018-08-17T09:58:17.102Z,5.37
2018-08-17T10:00:51.001Z,7.57
2018-08-17T10:03:24.852Z,8.73
2018-08-17T10:05:58.783Z,4.63
2018-08-17T10:08:32.582Z,6.97
2018-08-17T10:11:01.189Z,4.50
2018-08-17T10:13:29.721Z,5.87
2018-08-17T10:15:58.220Z,5.10
2018-08-17T10:18:31.207Z,7.17
2018-08-17T10:20:59.741Z,5.13
2018-08-17T10:23:28.249Z,5.93
2018-08-17T10:25:56.892Z,6.87
2018-08-17T10:28:25.855Z,6.57
2018-08-17T10:30:55.381Z,6.03
2018-08-17T10:33:23.902Z,7.00
2018-08-17T10:35:52.406Z,4.87
2018-08-17T10:38:20.938Z,4.97
2018-08-17T10:40:49.545Z,5.83
2018-08-17T10:43:17.993Z,5.00
2018-08-17T10:45:46.505Z,4.30
2018-08-17T10:48:15.014Z,6.63
2018-08-17T10:50:43.575Z,6.10
2018-08-17T10:53:12.092Z,2.67
2018-08-17T10:55:45.953Z,6.07
2018-08-17T10:58:15.979Z,3.80
2018-08-17T11:00:44.536Z,4.63
2018-08-17T11:03:13.050Z,3.93
2018-08-17T11:05:41.816Z,5.73
2018-08-17T11:08:10.337Z,6.87
2018-08-17T11:10:38.838Z,2.83
2018-08-17T11:13:07.377Z,5.77
2018-08-17T11:15:35.906Z,5.40
2018-08-17T11:18:04.525Z,4.73
2018-08-17T11:20:33.045Z,5.47
2018-08-17T11:23:01.564Z,5.85
2018-08-17T11:25:30.140Z,5.62
2018-08-17T11:27:58.671Z,9.00
2018-08-17T11:30:27.171Z,2.87
2018-08-17T11:32:56.085Z,6.65
2018-08-17T11:35:24.614Z,6.75
2018-08-17T11:37:53.158Z,7.47
2018-08-17T11:40:21.681Z,6.60
2018-08-17T11:42:50.863Z,3.27
2018-08-17T11:45:21.576Z,6.28
2018-08-17T11:47:50.394Z,2.30
2018-08-17T11:50:20.470Z,6.90
2018-08-17T11:52:53.744Z,3.25
2018-08-17T11:55:23.093Z,6.30
2018-08-17T11:57:51.717Z,7.50
2018-08-17T12:00:20.287Z,5.83
2018-08-17T12:02:48.849Z,5.20
2018-08-17T12:05:17.378Z,7.17
2018-08-17T12:07:46.608Z,5.72
2018-08-17T12:10:15.150Z,2.87
2018-08-17T12:12:44.553Z,5.97
2018-08-17T12:15:13.733Z,3.50
2018-08-17T12:17:42.237Z,4.80
2018-08-17T12:20:10.749Z,2.72
2018-08-17T12:22:39.262Z,4.72
2018-08-17T12:25:08.660Z,6.58
2018-08-17T12:27:37.162Z,6.05
2018-08-17T12:30:06.946Z,4.67
2018-08-17T12:32:35.477Z,5.00
2018-08-17T12:35:04.206Z,3.95
2018-08-17T12:37:32.741Z,2.05
2018-08-17T12:40:01.270Z,6.80
2018-08-17T12:42:29.834Z,3.77
2018-08-17T12:45:02.585Z,3.50
2018-08-17T12:47:31.509Z,4.42
2018-08-17T12:50:00.063Z,4.17
2018-08-17T12:52:28.625Z,7.00
2018-08-17T12:54:57.167Z,2.35
2018-08-17T12:57:29.910Z,7.47
2018-08-17T12:59:58.422Z,2.62
2018-08-17T13:02:26.985Z,5.72
2018-08-17T13:04:55.494Z,5.47
2018-08-17T13:07:23.998Z,3.55
2018-08-17T13:09:53.991Z,3.50
2018-08-17T13:12:22.582Z,2.50
2018-08-17T13:14:51.981Z,4.62
2018-08-17T13:17:20.665Z,3.80
2018-08-17T13:19:49.204Z,3.80
2018-08-17T13:22:17.765Z,5.00
2018-08-17T13:24:46.313Z,3.95
2018-08-17T13:27:14.862Z,3.47
2018-08-17T13:29:43.453Z,2.55
2018-08-17T13:32:12.016Z,2.67
2018-08-17T13:34:40.537Z,5.30
2018-08-17T13:37:09.081Z,2.98
2018-08-17T13:39:37.625Z,2.42
2018-08-17T13:42:06.336Z,3.67
2018-08-17T13:44:34.886Z,3.12
2018-08-17T13:47:03.417Z,3.92
2018-08-17T13:49:31.959Z,4.53
2018-08-17T13:52:00.519Z,3.22
2018-08-17T13:54:29.045Z,6.50
2018-08-17T13:56:57.585Z,3.90
2018-08-17T13:59:26.152Z,4.35
2018-08-17T14:01:54.668Z,4.30
2018-08-17T14:04:23.238Z,4.80
2018-08-17T14:06:51.784Z,3.45
2018-08-17T14:09:20.294Z,4.97
2018-08-17T14:11:48.814Z,5.72
2018-08-17T14:14:17.329Z,3.25
2018-08-17T14:16:45.868Z,2.55
2018-08-17T14:19:14.381Z,4.92
2018-08-17T14:21:42.907Z,4.70
2018-08-17T14:24:11.433Z,6.62
2018-08-17T14:26:39.938Z,3.45
2018-08-17T14:29:08.486Z,2.90
2018-08-17T14:31:37.019Z,4.47
2018-08-17T14:34:05.554Z,5.78
2018-08-17T14:36:34.069Z,3.60
2018-08-17T14:39:02.640Z,5.77
2018-08-17T14:41:31.185Z,3.70
2018-08-17T14:43:59.701Z,3.37
2018-08-17T14:46:28.378Z,6.30
2018-08-17T14:48:56.774Z,9.20
2018-08-17T14:51:25.304Z,2.53
2018-08-17T14:53:53.846Z,6.73
2018-08-17T14:56:22.377Z,5.13
2018-08-17T14:58:50.897Z,4.90
2018-08-17T15:01:19.415Z,3.23
2018-08-17T15:03:48.185Z,4.10
2018-08-17T15:06:16.729Z,4.50
2018-08-17T15:08:45.233Z,6.27
2018-08-17T15:11:13.757Z,5.83
2018-08-17T15:13:42.307Z,6.73
2018-08-17T15:16:10.785Z,4.17
2018-08-17T15:18:39.394Z,1.90
2018-08-17T15:21:07.933Z,5.53
2018-08-17T15:23:36.442Z,4.13
2018-08-17T15:26:04.983Z,7.60
2018-08-17T15:28:33.549Z,4.67
2018-08-17T15:31:02.046Z,5.33
2018-08-17T15:33:30.553Z,5.77
2018-08-17T15:35:59.052Z,5.23
2018-08-17T15:38:27.572Z,5.80
2018-08-17T15:40:56.310Z,3.20
2018-08-17T15:43:24.846Z,2.70
2018-08-17T15:45:53.372Z,5.90
2018-08-17T15:48:21.874Z,3.47
2018-08-17T15:50:50.385Z,3.23
2018-08-17T15:53:18.885Z,4.20
2018-08-17T15:55:47.493Z,9.80
2018-08-17T15:58:16.058Z,4.23
2018-08-17T16:00:44.897Z,4.43
2018-08-17T16:03:13.421Z,4.87
2018-08-17T16:05:41.930Z,4.08
2018-08-17T16:08:10.521Z,3.77
2018-08-17T16:10:39.726Z,3.53
2018-08-17T16:13:08.258Z,3.67
2018-08-17T16:15:36.761Z,3.33
2018-08-17T16:18:05.298Z,2.57
2018-08-17T16:20:33.854Z,8.90
2018-08-17T16:23:02.397Z,2.93
2018-08-17T16:25:30.918Z,3.43
2018-08-17T16:27:59.463Z,3.33
2018-08-17T16:30:27.989Z,3.70
2018-08-17T16:32:56.542Z,2.00
2018-08-17T16:35:25.079Z,3.17
2018-08-17T16:37:53.851Z,5.12
2018-08-17T16:40:22.805Z,6.20
2018-08-17T16:42:52.122Z,4.00
2018-08-17T16:45:20.720Z,6.23
2018-08-17T16:47:49.258Z,2.23
2018-08-17T16:50:17.790Z,3.17
2018-08-17T16:52:46.325Z,2.73
2018-08-17T16:55:14.854Z,4.27
2018-08-17T16:57:43.406Z,4.70
2018-08-17T17:00:12.053Z,3.40
2018-08-17T17:02:41.202Z,3.57
2018-08-17T17:05:09.706Z,3.17
2018-08-17T17:07:38.237Z,3.50
2018-08-17T17:10:08.598Z,3.20
2018-08-17T17:12:37.146Z,2.90
2018-08-17T17:15:13.089Z,3.87
2018-08-17T17:17:41.605Z,5.67
2018-08-17T17:20:10.144Z,5.20
2018-08-17T17:22:38.660Z,2.10
2018-08-17T17:25:12.346Z,1.93
2018-08-17T17:27:40.927Z,2.07
2018-08-17T17:30:09.432Z,2.43
2018-08-17T17:32:37.974Z,2.63
2018-08-17T17:35:06.544Z,3.50
2018-08-17T17:37:35.061Z,3.33
2018-08-17T17:40:03.707Z,2.67
2018-08-17T17:42:32.233Z,1.93
2018-08-17T17:45:00.870Z,2.93
2018-08-17T17:47:29.374Z,4.43
2018-08-17T17:49:57.960Z,3.27
2018-08-17T17:52:26.465Z,3.10
2018-08-17T17:54:54.962Z,5.03
2018-08-17T17:57:23.501Z,3.80
2018-08-17T17:59:58.793Z,2.77
2018-08-17T18:02:28.480Z,4.13
2018-08-17T18:04:57.057Z,4.30
2018-08-17T18:07:33.646Z,3.90
2018-08-17T18:10:02.963Z,6.27
2018-08-17T18:12:31.501Z,3.13
2018-08-17T18:15:00.005Z,3.80
2018-08-17T18:17:28.581Z,3.40
2018-08-17T18:19:57.105Z,2.87
2018-08-17T18:22:29.908Z,6.37
2018-08-17T18:25:03.057Z,6.47
2018-08-17T18:27:31.822Z,6.10
2018-08-17T18:30:00.349Z,1.87
2018-08-17T18:32:28.889Z,4.33
2018-08-17T18:34:57.575Z,3.93
2018-08-17T18:37:26.217Z,6.40
2018-08-17T18:39:54.769Z,4.03
2018-08-17T18:42:23.320Z,4.27
2018-08-17T18:44:51.955Z,3.70
2018-08-17T18:47:20.518Z,4.90
2018-08-17T18:49:49.058Z,4.67
2018-08-17T18:52:17.662Z,4.73
2018-08-17T18:54:46.323Z,3.00
2018-08-17T18:57:14.904Z,5.63
2018-08-17T18:59:44.663Z,5.03
2018-08-17T19:02:13.177Z,4.43
2018-08-17T19:04:41.727Z,3.60
2018-08-17T19:07:10.254Z,5.13
2018-08-17T19:09:38.820Z,4.53
2018-08-17T19:12:07.387Z,5.07
2018-08-17T19:14:41.763Z,2.60
2018-08-17T19:17:14.520Z,3.93
2018-08-17T19:19:43.085Z,4.70
2018-08-17T19:22:11.779Z,4.73
2018-08-17T19:24:40.274Z,1.57
2018-08-17T19:27:08.881Z,5.53
2018-08-17T19:29:37.405Z,3.97
2018-08-17T19:32:05.981Z,4.30
2018-08-17T19:34:34.490Z,6.50
2018-08-17T19:37:03.914Z,6.37
2018-08-17T19:39:33.449Z,2.93
2018-08-17T19:42:02.397Z,3.67
2018-08-17T19:44:31.049Z,4.53
2018-08-17T19:46:59.596Z,5.70
2018-08-17T19:49:28.142Z,7.10
2018-08-17T19:51:56.681Z,6.57
2018-08-17T19:54:25.201Z,7.17
2018-08-17T19:56:53.807Z,9.10
2018-08-17T19:59:22.318Z,3.97
2018-08-17T20:01:50.934Z,4.57
2018-08-17T20:04:19.463Z,7.10
2018-08-17T20:06:47.981Z,8.60
2018-08-17T20:09:16.800Z,8.23
2018-08-17T20:11:46.316Z,5.17
2018-08-17T20:14:14.818Z,3.70
2018-08-17T20:16:43.361Z,7.10
2018-08-17T20:19:11.956Z,6.23
2018-08-17T20:21:40.389Z,7.53
2018-08-17T20:24:08.901Z,5.97
2018-08-17T20:26:37.685Z,6.40
2018-08-17T20:29:06.048Z,3.70
2018-08-17T20:31:41.049Z,6.33
2018-08-17T20:34:09.788Z,8.30
2018-08-17T20:36:38.366Z,6.53
2018-08-17T20:39:10.542Z,6.67
2018-08-17T20:41:39.042Z,4.47
2018-08-17T20:44:07.777Z,5.63
2018-08-17T20:46:36.414Z,7.27
2018-08-17T20:49:04.958Z,8.77
2018-08-17T20:51:33.661Z,4.67
2018-08-17T20:54:03.148Z,8.90
2018-08-17T20:56:31.695Z,7.63
2018-08-17T20:59:00.213Z,8.90
2018-08-17T21:01:28.742Z,11.50
2018-08-17T21:03:57.274Z,8.27
2018-08-17T21:06:25.806Z,7.87
2018-08-17T21:08:54.379Z,10.53
2018-08-17T21:11:22.914Z,12.90
2018-08-17T21:13:51.517Z,13.43
2018-08-17T21:16:20.077Z,7.33
2018-08-17T21:18:48.583Z,6.63
2018-08-17T21:21:17.106Z,8.37
2018-08-17T21:23:45.625Z,5.77
2018-08-17T21:26:14.125Z,6.77
2018-08-17T21:28:42.659Z,5.43
2018-08-17T21:31:11.211Z,10.10
2018-08-17T21:33:39.741Z,8.90
2018-08-17T21:36:08.238Z,6.07
2018-08-17T21:38:36.765Z,7.57
2018-08-17T21:41:06.851Z,9.83
2018-08-17T21:43:35.369Z,7.97
2018-08-17T21:46:05.849Z,5.20
2018-08-17T21:48:37.144Z,10.07
2018-08-17T21:51:06.449Z,7.13
2018-08-17T21:53:34.982Z,8.03
2018-08-17T21:56:03.521Z,7.97
2018-08-17T21:58:32.098Z,7.17
2018-08-17T22:01:00.603Z,9.37
2018-08-17T22:03:31.237Z,8.97
2018-08-17T22:05:59.761Z,10.00
2018-08-17T22:08:28.309Z,10.00
2018-08-17T22:10:56.837Z,13.47
2018-08-17T22:13:31.561Z,10.00
2018-08-17T22:16:00.718Z,12.70
2018-08-17T22:18:29.671Z,8.83
2018-08-17T22:20:58.318Z,7.43
2018-08-17T22:23:28.261Z,7.27
2018-08-17T22:25:56.825Z,9.37
2018-08-17T22:28:25.378Z,9.83
2018-08-17T22:30:54.757Z,8.07
2018-08-17T22:33:23.266Z,6.93
2018-08-17T22:35:51.858Z,9.90
2018-08-17T22:38:20.431Z,8.10
2018-08-17T22:40:48.938Z,8.93
2018-08-17T22:43:17.456Z,9.00
2018-08-17T22:45:45.982Z,8.93
2018-08-17T22:48:14.566Z,9.23
2018-08-17T22:50:43.062Z,11.10
2018-08-17T22:53:11.591Z,13.40
2018-08-17T22:55:40.138Z,9.40
2018-08-17T22:58:08.660Z,11.33
2018-08-17T23:00:37.183Z,13.67
2018-08-17T23:03:05.762Z,10.97
2018-08-17T23:05:36.109Z,9.63
2018-08-17T23:08:04.622Z,11.63
2018-08-17T23:10:35.196Z,9.37
2018-08-17T23:13:03.733Z,9.13
2018-08-17T23:15:32.277Z,12.47
2018-08-17T23:18:01.588Z,11.83
2018-08-17T23:20:37.315Z,10.23
2018-08-17T23:23:06.649Z,8.33
2018-08-17T23:25:35.326Z,10.70
2018-08-17T23:28:03.846Z,9.53
2018-08-17T23:30:32.344Z,6.87
2018-08-17T23:33:00.845Z,6.80
2018-08-17T23:35:29.379Z,8.57
2018-08-17T23:37:57.907Z,9.27
2018-08-17T23:40:26.408Z,6.63
2018-08-17T23:42:54.929Z,8.40
2018-08-17T23:45:23.556Z,7.00
2018-08-17T23:47:52.134Z,7.20
2018-08-17T23:50:20.709Z,6.50
2018-08-17T23:52:49.226Z,6.00
2018-08-17T23:55:18.511Z,10.53
2018-08-17T23:57:47.057Z,7.40
